createdAt,value
2017-02-24T00:00:33.856Z,30.25
2017-02-24T00:01:33.880Z,30.25
2017-02-24T00:02:33.819Z,30.25
2017-02-24T00:03:33.885Z,30.05
2017-02-24T00:04:33.881Z,30.15
2017-02-24T00:05:33.845Z,29.96
2017-02-24T00:06:33.851Z,30.15
2017-02-24T00:07:33.874Z,30.44
2017-02-24T00:08:33.909Z,30.05
2017-02-24T00:09:34.162Z,30.15
2017-02-24T00:10:33.473Z,30.05
2017-02-24T00:11:33.942Z,29.96
2017-02-24T00:12:33.934Z,30.05
2017-02-24T00:13:33.942Z,29.96
2017-02-24T00:14:33.999Z,29.86
2017-02-24T00:15:33.924Z,30.15
2017-02-24T00:16:33.916Z,30.25
2017-02-24T00:17:33.935Z,30.15
2017-02-24T00:18:33.923Z,30.25
2017-02-24T00:19:33.987Z,30.25
2017-02-24T00:20:33.988Z,30.15
2017-02-24T00:21:34.004Z,30.25
2017-02-24T00:22:33.964Z,30.15
2017-02-24T00:23:34.009Z,29.57
2017-02-24T00:24:33.978Z,30.15
2017-02-24T00:25:33.976Z,29.57
2017-02-24T00:26:33.978Z,29.57
2017-02-24T00:27:33.984Z,29.28
2017-02-24T00:28:33.993Z,29.28
2017-02-24T00:29:34.105Z,29.1
2017-02-24T00:30:34.016Z,29.28
2017-02-24T00:31:34.011Z,29.28
2017-02-24T00:32:34.019Z,29.67
2017-02-24T00:33:34.139Z,29.47
2017-02-24T00:34:34.032Z,29.57
2017-02-24T00:35:34.037Z,28.99
2017-02-24T00:36:33.710Z,29.19
2017-02-24T00:37:34.053Z,29.28
2017-02-24T00:38:34.090Z,29.39
2017-02-24T00:39:34.379Z,29.57
2017-02-24T00:40:33.677Z,29.28
2017-02-24T00:41:34.080Z,29.47
2017-02-24T00:42:34.083Z,29.28
2017-02-24T00:43:34.170Z,29.28
2017-02-24T00:44:34.111Z,29.38
2017-02-24T00:45:33.789Z,29.67
2017-02-24T00:46:34.113Z,29.57
2017-02-24T00:47:34.228Z,29.77
2017-02-24T00:48:33.783Z,29.57
2017-02-24T00:49:34.149Z,29.19
2017-02-24T00:50:34.239Z,29.38
2017-02-24T00:51:34.146Z,29.67
2017-02-24T00:52:33.806Z,29.67
2017-02-24T00:53:34.209Z,30.15
2017-02-24T00:54:34.168Z,30.05
2017-02-24T00:55:34.227Z,30.25
2017-02-24T00:56:34.181Z,29.57
2017-02-24T00:57:34.236Z,29.38
2017-02-24T00:58:34.195Z,29.47
2017-02-24T00:59:34.250Z,29.57
2017-02-24T01:00:34.253Z,29.57
2017-02-24T01:01:34.227Z,29.67
2017-02-24T01:02:34.274Z,29.01
2017-02-24T01:03:34.277Z,29.3
2017-02-24T01:04:34.299Z,29.28
2017-02-24T01:05:33.903Z,29.47
2017-02-24T01:06:34.299Z,29.57
2017-02-24T01:07:34.307Z,29.47
2017-02-24T01:08:34.261Z,29.28
2017-02-24T01:09:34.320Z,29.19
2017-02-24T01:10:33.930Z,29.38
2017-02-24T01:11:34.280Z,29.38
2017-02-24T01:12:34.350Z,29.38
2017-02-24T01:13:34.295Z,29.47
2017-02-24T01:14:34.615Z,29.38
2017-02-24T01:15:34.390Z,29.38
2017-02-24T01:16:33.922Z,29.39
2017-02-24T01:17:34.329Z,29.47
2017-02-24T01:18:34.327Z,29.28
2017-02-24T01:19:34.338Z,29.28
2017-02-24T01:20:33.960Z,29.38
2017-02-24T01:21:34.347Z,29.38
2017-02-24T01:22:34.366Z,29.38
2017-02-24T01:23:33.964Z,28.99
2017-02-24T01:24:34.372Z,29.01
2017-02-24T01:25:34.425Z,29.47
2017-02-24T01:26:34.431Z,29.47
2017-02-24T01:27:34.388Z,29.47
2017-02-24T01:28:34.461Z,29.19
2017-02-24T01:29:34.451Z,29.38
2017-02-24T01:30:34.460Z,29.57
2017-02-24T01:31:34.515Z,29.67
2017-02-24T01:32:34.480Z,29.28
2017-02-24T01:33:34.480Z,29.47
2017-02-24T01:34:34.098Z,29.38
2017-02-24T01:35:34.443Z,29.38
2017-02-24T01:36:34.551Z,29.67
2017-02-24T01:37:34.557Z,29.57
2017-02-24T01:38:34.561Z,29.57
2017-02-24T01:39:34.559Z,29.57
2017-02-24T01:40:34.481Z,29.47
2017-02-24T01:41:35.582Z,29.57
2017-02-24T01:42:34.754Z,29.57
2017-02-24T01:43:34.515Z,29.38
2017-02-24T01:44:34.557Z,29.67
2017-02-24T01:45:34.617Z,29.47
2017-02-24T01:46:34.515Z,29.38
2017-02-24T01:47:34.582Z,29.19
2017-02-24T01:48:34.154Z,29.47
2017-02-24T01:49:34.535Z,28.99
2017-02-24T01:50:34.542Z,28.89
2017-02-24T01:51:34.551Z,29.01
2017-02-24T01:52:34.659Z,29.38
2017-02-24T01:53:34.625Z,29.38
2017-02-24T01:54:34.574Z,29.28
2017-02-24T01:55:34.682Z,29.38
2017-02-24T01:56:34.597Z,29.47
2017-02-24T01:57:34.602Z,29.28
2017-02-24T01:58:34.597Z,29.47
2017-02-24T01:59:34.207Z,29.67
2017-02-24T02:00:34.773Z,29.57
2017-02-24T02:01:34.619Z,29.28
2017-02-24T02:02:34.673Z,29.28
2017-02-24T02:03:34.633Z,29.38
2017-02-24T02:04:34.654Z,29.47
2017-02-24T02:05:34.645Z,29.57
2017-02-24T02:06:34.755Z,29.47
2017-02-24T02:07:34.269Z,29.47
2017-02-24T02:08:34.714Z,29.47
2017-02-24T02:09:34.280Z,29.67
2017-02-24T02:10:34.705Z,29.38
2017-02-24T02:11:34.759Z,29.28
2017-02-24T02:12:35.820Z,29.38
2017-02-24T02:13:34.772Z,29.28
2017-02-24T02:14:34.827Z,29.38
2017-02-24T02:15:34.737Z,29.47
2017-02-24T02:16:34.744Z,29.38
2017-02-24T02:17:34.798Z,29.57
2017-02-24T02:18:34.807Z,29.67
2017-02-24T02:19:34.764Z,29.67
2017-02-24T02:20:34.833Z,29.47
2017-02-24T02:21:34.832Z,29.28
2017-02-24T02:22:34.784Z,29.38
2017-02-24T02:23:34.788Z,28.99
2017-02-24T02:24:34.794Z,28.89
2017-02-24T02:25:34.911Z,29.47
2017-02-24T02:26:34.818Z,29.38
2017-02-24T02:27:34.832Z,29.47
2017-02-24T02:28:34.872Z,29.38
2017-02-24T02:29:34.879Z,29.28
2017-02-24T02:30:34.893Z,29.47
2017-02-24T02:31:34.848Z,29.38
2017-02-24T02:32:34.848Z,29.47
2017-02-24T02:33:34.960Z,29.67
2017-02-24T02:34:34.865Z,29.47
2017-02-24T02:35:34.921Z,29.38
2017-02-24T02:36:34.926Z,29.38
2017-02-24T02:37:34.486Z,29.47
2017-02-24T02:38:34.941Z,29.27
2017-02-24T02:39:34.912Z,29.38
2017-02-24T02:40:34.510Z,29.36
2017-02-24T02:41:34.962Z,29.38
2017-02-24T02:42:34.974Z,29.47
2017-02-24T02:43:34.536Z,29.57
2017-02-24T02:44:34.981Z,29.19
2017-02-24T02:45:34.553Z,29.28
2017-02-24T02:46:35.002Z,29.47
2017-02-24T02:47:35.004Z,29.28
2017-02-24T02:48:34.959Z,29.47
2017-02-24T02:49:34.965Z,29.47
2017-02-24T02:50:34.970Z,29.28
2017-02-24T02:51:34.983Z,29.28
2017-02-24T02:52:35.036Z,29.28
2017-02-24T02:53:35.043Z,29.28
2017-02-24T02:54:34.646Z,29.19
2017-02-24T02:55:35.004Z,29.47
2017-02-24T02:56:35.014Z,29.57
2017-02-24T02:57:35.020Z,29.28
2017-02-24T02:58:34.675Z,29.28
2017-02-24T02:59:35.082Z,29.28
2017-02-24T03:00:35.089Z,29.47
2017-02-24T03:01:35.080Z,29.19
2017-02-24T03:02:35.101Z,29.38
2017-02-24T03:03:34.708Z,29.57
2017-02-24T03:04:34.675Z,29.28
2017-02-24T03:05:35.119Z,29.19
2017-02-24T03:06:35.079Z,29.38
2017-02-24T03:07:34.788Z,29.57
2017-02-24T03:08:34.697Z,29.19
2017-02-24T03:09:35.202Z,29.47
2017-02-24T03:10:35.156Z,29.38
2017-02-24T03:11:35.125Z,29.57
2017-02-24T03:12:35.253Z,29.28
2017-02-24T03:13:35.177Z,29.57
2017-02-24T03:14:35.132Z,29.28
2017-02-24T03:15:35.190Z,29.57
2017-02-24T03:16:35.193Z,29.38
2017-02-24T03:17:35.702Z,29.67
2017-02-24T03:18:35.256Z,29.67
2017-02-24T03:19:35.163Z,29.57
2017-02-24T03:20:35.231Z,29.38
2017-02-24T03:21:35.226Z,29.57
2017-02-24T03:22:35.235Z,29.47
2017-02-24T03:23:35.242Z,29.38
2017-02-24T03:24:35.247Z,29.46
2017-02-24T03:25:34.804Z,29.47
2017-02-24T03:26:35.211Z,29.28
2017-02-24T03:27:35.232Z,29.28
2017-02-24T03:28:35.223Z,29.57
2017-02-24T03:29:35.230Z,29.38
2017-02-24T03:30:35.244Z,29.19
2017-02-24T03:31:35.254Z,29.47
2017-02-24T03:32:35.318Z,29.38
2017-02-24T03:33:35.258Z,29.38
2017-02-24T03:34:35.262Z,29.28
2017-02-24T03:35:35.287Z,29.47
2017-02-24T03:36:34.934Z,29.47
2017-02-24T03:37:35.384Z,29.46
2017-02-24T03:38:35.339Z,29.36
2017-02-24T03:39:35.300Z,30.24
2017-02-24T03:40:35.355Z,29.46
2017-02-24T03:41:35.308Z,29.46
2017-02-24T03:42:35.318Z,29.75
2017-02-24T03:44:35.331Z,29.66
2017-02-24T03:45:35.343Z,29.36
2017-02-24T03:46:35.445Z,29.67
2017-02-24T03:47:35.405Z,29.36
2017-02-24T03:48:35.414Z,29.57
2017-02-24T03:49:35.360Z,29.47
2017-02-24T03:50:35.416Z,29.36
2017-02-24T03:52:36.016Z,29.67
2017-02-24T03:53:35.475Z,29.47
2017-02-24T03:54:35.587Z,29.47
2017-02-24T03:55:35.043Z,29.36
2017-02-24T03:56:34.996Z,29.47
2017-02-24T03:57:35.403Z,29.36
2017-02-24T03:58:35.405Z,29.57
2017-02-24T03:59:35.467Z,29.66
2017-02-24T04:00:35.420Z,29.57
2017-02-24T04:01:35.478Z,29.27
2017-02-24T04:02:35.094Z,29.36
2017-02-24T04:03:35.491Z,29.46
2017-02-24T04:04:35.498Z,29.27
2017-02-24T04:05:35.457Z,29.36
2017-02-24T04:06:35.561Z,29.36
2017-02-24T04:07:35.871Z,29.28
2017-02-24T04:08:35.523Z,29.36
2017-02-24T04:09:35.484Z,29.38
2017-02-24T04:10:35.489Z,29.28
2017-02-24T04:11:35.506Z,29.27
2017-02-24T04:12:35.496Z,29.36
2017-02-24T04:14:35.511Z,29.57
2017-02-24T04:15:35.820Z,29.27
2017-02-24T04:16:36.642Z,29.36
2017-02-24T04:17:35.533Z,29.66
2017-02-24T04:18:35.545Z,29.46
2017-02-24T04:19:35.605Z,29.27
2017-02-24T04:20:35.253Z,29.47
2017-02-24T04:21:35.609Z,29.09
2017-02-24T04:22:35.563Z,29.36
2017-02-24T04:23:35.570Z,29.46
2017-02-24T04:24:35.191Z,29.46
2017-02-24T04:25:36.785Z,29.27
2017-02-24T04:26:35.192Z,29.36
2017-02-24T04:27:36.057Z,29.75
2017-02-24T04:28:35.621Z,29.36
2017-02-24T04:29:35.669Z,29.36
2017-02-24T04:30:35.619Z,29.67
2017-02-24T04:31:35.671Z,29.85
2017-02-24T04:32:35.629Z,29.66
2017-02-24T04:33:35.650Z,29.56
2017-02-24T04:34:35.691Z,29.56
2017-02-24T04:35:35.303Z,29.66
2017-02-24T04:36:36.358Z,29.17
2017-02-24T04:37:35.713Z,29.09
2017-02-24T04:38:35.669Z,29.09
2017-02-24T04:39:35.727Z,28.98
2017-02-24T04:40:35.680Z,29.38
2017-02-24T04:41:35.689Z,29.57
2017-02-24T04:42:35.802Z,29.46
2017-02-24T04:43:54.907Z,29.47
2017-02-24T04:44:35.709Z,29.27
2017-02-24T04:45:35.716Z,29.46
2017-02-24T04:46:35.326Z,29.46
2017-02-24T04:47:36.479Z,29.36
2017-02-24T04:48:35.334Z,29.47
2017-02-24T04:49:35.793Z,29.28
2017-02-24T04:50:35.804Z,29.47
2017-02-24T04:51:35.755Z,29.47
2017-02-24T04:52:35.764Z,29.46
2017-02-24T04:53:35.818Z,29.27
2017-02-24T04:54:35.877Z,29.67
2017-02-24T04:55:35.780Z,29.36
2017-02-24T04:56:35.838Z,29.28
2017-02-24T04:57:35.797Z,29.46
2017-02-24T04:58:36.519Z,29.08
2017-02-24T04:59:35.466Z,29.36
2017-02-24T05:00:35.866Z,29.36
2017-02-24T05:01:35.872Z,29.47
2017-02-24T05:02:35.880Z,29.38
2017-02-24T05:03:35.884Z,29.46
2017-02-24T05:04:35.894Z,29.36
2017-02-24T05:05:35.848Z,29.36
2017-02-24T05:06:35.855Z,29.46
2017-02-24T05:07:35.911Z,29.46
2017-02-24T05:08:35.569Z,29.36
2017-02-24T05:09:35.931Z,29.46
2017-02-24T05:10:35.907Z,29.46
2017-02-24T05:11:35.895Z,29.56
2017-02-24T05:12:35.944Z,29.46
2017-02-24T05:13:36.001Z,29.36
2017-02-24T05:14:35.915Z,29.38
2017-02-24T05:15:35.965Z,29.47
2017-02-24T05:16:35.974Z,29.66
2017-02-24T05:17:35.927Z,29.56
2017-02-24T05:18:35.585Z,29.28
2017-02-24T05:19:35.960Z,29.46
2017-02-24T05:20:35.943Z,29.36
2017-02-24T05:21:36.059Z,29.56
2017-02-24T05:22:35.959Z,29.46
2017-02-24T05:23:36.017Z,29.46
2017-02-24T05:24:36.033Z,29.46
2017-02-24T05:25:35.641Z,28.98
2017-02-24T05:26:35.988Z,29.46
2017-02-24T05:27:36.002Z,29.36
2017-02-24T05:28:36.005Z,29.46
2017-02-24T05:29:35.808Z,29.56
2017-02-24T05:30:36.015Z,29.27
2017-02-24T05:31:36.020Z,28.98
2017-02-24T05:32:36.028Z,28.98
2017-02-24T05:33:37.137Z,29.08
2017-02-24T05:34:35.645Z,29.08
2017-02-24T05:35:36.098Z,29.17
2017-02-24T05:36:35.706Z,29.19
2017-02-24T05:37:35.714Z,28.98
2017-02-24T05:38:35.718Z,29.38
2017-02-24T05:39:36.071Z,28.98
2017-02-24T05:40:36.129Z,28.98
2017-02-24T05:41:36.137Z,28.98
2017-02-24T05:42:37.001Z,28.98
2017-02-24T05:43:35.757Z,29.08
2017-02-24T05:44:36.759Z,28.98
2017-02-24T05:45:36.174Z,28.98
2017-02-24T05:46:35.719Z,28.88
2017-02-24T05:47:36.177Z,28.98
2017-02-24T05:48:36.185Z,28.88
2017-02-24T05:49:36.139Z,29.08
2017-02-24T05:50:36.157Z,29.09
2017-02-24T05:51:35.770Z,28.99
2017-02-24T05:52:36.214Z,29.08
2017-02-24T05:53:37.215Z,28.99
2017-02-24T05:54:36.172Z,29.08
2017-02-24T05:55:36.281Z,28.88
2017-02-24T05:56:36.187Z,28.98
2017-02-24T05:57:36.192Z,29.19
2017-02-24T05:58:36.246Z,29.27
2017-02-24T05:59:36.204Z,29.17
2017-02-24T06:00:35.822Z,29.09
2017-02-24T06:01:35.836Z,29.08
2017-02-24T06:02:35.827Z,29.17
2017-02-24T06:03:36.282Z,28.98
2017-02-24T06:04:36.743Z,28.98
2017-02-24T06:05:36.250Z,29.09
2017-02-24T06:06:36.250Z,28.99
2017-02-24T06:07:36.311Z,28.98
2017-02-24T06:08:37.392Z,28.99
2017-02-24T06:09:36.277Z,29.08
2017-02-24T06:10:36.281Z,29.08
2017-02-24T06:11:36.289Z,29.17
2017-02-24T06:12:36.340Z,29.08
2017-02-24T06:13:36.409Z,29.19
2017-02-24T06:14:36.303Z,29.09
2017-02-24T06:15:36.311Z,28.98
2017-02-24T06:16:36.380Z,29.08
2017-02-24T06:17:37.344Z,29.09
2017-02-24T06:18:36.391Z,28.98
2017-02-24T06:19:37.086Z,29.09
2017-02-24T06:20:35.995Z,29.08
2017-02-24T06:21:36.006Z,29.08
2017-02-24T06:22:36.467Z,29.17
2017-02-24T06:23:36.416Z,29.17
2017-02-24T06:24:36.384Z,29.19
2017-02-24T06:25:36.379Z,29.17
2017-02-24T06:26:36.387Z,29.17
2017-02-24T06:27:36.443Z,29.17
2017-02-24T06:28:37.500Z,29.17
2017-02-24T06:29:36.455Z,29.17
2017-02-24T06:30:36.765Z,29.28
2017-02-24T06:31:36.419Z,29.17
2017-02-24T06:32:36.432Z,28.89
2017-02-24T06:33:36.481Z,28.99
2017-02-24T06:34:36.090Z,28.99
2017-02-24T06:35:36.494Z,28.89
2017-02-24T06:36:36.453Z,29.09
2017-02-24T06:37:36.108Z,29.09
2017-02-24T06:38:36.467Z,29.09
2017-02-24T06:39:37.620Z,29.09
2017-02-24T06:40:36.534Z,29.19
2017-02-24T06:41:36.733Z,29.17
2017-02-24T06:42:36.496Z,29.27
2017-02-24T06:43:36.496Z,29.17
2017-02-24T06:44:36.609Z,29.28
2017-02-24T06:45:36.564Z,29.08
2017-02-24T06:46:36.524Z,29.09
2017-02-24T06:47:36.571Z,28.99
2017-02-24T06:48:36.531Z,28.89
2017-02-24T06:49:36.536Z,29.09
2017-02-24T06:50:37.253Z,29.19
2017-02-24T06:51:36.563Z,29.19
2017-02-24T06:52:36.673Z,29.08
2017-02-24T06:53:36.669Z,28.89
2017-02-24T06:54:36.570Z,28.89
2017-02-24T06:55:36.577Z,29.19
2017-02-24T06:56:36.586Z,28.99
2017-02-24T06:57:36.604Z,28.88
2017-02-24T06:58:36.885Z,28.89
2017-02-24T06:59:36.611Z,28.99
2017-02-24T07:00:36.611Z,28.89
2017-02-24T07:01:37.119Z,28.99
2017-02-24T07:02:36.624Z,29.17
2017-02-24T07:03:36.233Z,29.19
2017-02-24T07:04:36.701Z,28.98
2017-02-24T07:05:36.693Z,28.89
2017-02-24T07:06:36.654Z,28.89
2017-02-24T07:07:36.726Z,28.8
2017-02-24T07:08:36.712Z,28.89
2017-02-24T07:09:36.721Z,29.19
2017-02-24T07:10:36.678Z,29.09
2017-02-24T07:11:36.686Z,29.09
2017-02-24T07:12:36.690Z,28.98
2017-02-24T07:13:55.902Z,28.89
2017-02-24T07:14:37.727Z,28.88
2017-02-24T07:15:36.763Z,28.8
2017-02-24T07:16:36.768Z,28.99
2017-02-24T07:17:36.773Z,28.88
2017-02-24T07:18:36.793Z,28.89
2017-02-24T07:19:36.739Z,28.51
2017-02-24T07:20:36.747Z,28.7
2017-02-24T07:21:36.850Z,28.61
2017-02-24T07:22:36.411Z,28.8
2017-02-24T07:23:36.880Z,28.61
2017-02-24T07:24:36.770Z,28.61
2017-02-24T07:25:37.621Z,28.7
2017-02-24T07:26:36.784Z,28.51
2017-02-24T07:27:36.790Z,28.41
2017-02-24T07:28:36.800Z,28.22
2017-02-24T07:29:36.904Z,28.31
2017-02-24T07:30:36.861Z,28.23
2017-02-24T07:31:36.868Z,27.75
2017-02-24T07:32:36.874Z,27.85
2017-02-24T07:33:36.828Z,27.57
2017-02-24T07:34:36.893Z,27.28
2017-02-24T07:35:36.843Z,26.99
2017-02-24T07:36:37.704Z,27.09
2017-02-24T07:37:36.909Z,26.42
2017-02-24T07:38:36.866Z,26.72
2017-02-24T07:39:36.483Z,26.32
2017-02-24T07:40:36.932Z,25.76
2017-02-24T07:41:36.938Z,25.66
2017-02-24T07:42:36.895Z,25.66
2017-02-24T07:44:36.911Z,25.58
2017-02-24T07:45:38.040Z,24.9
2017-02-24T07:46:36.973Z,24.82
2017-02-24T07:47:37.533Z,24.72
2017-02-24T07:48:36.986Z,24.62
2017-02-24T07:49:36.991Z,24.62
2017-02-24T07:50:36.952Z,24.52
2017-02-24T07:51:37.010Z,24.23
2017-02-24T07:52:37.017Z,24.62
2017-02-24T07:53:36.576Z,24.43
2017-02-24T07:54:36.981Z,24.33
2017-02-24T07:55:37.050Z,24.33
2017-02-24T07:56:38.111Z,24.43
2017-02-24T07:57:37.055Z,24.62
2017-02-24T07:58:37.411Z,24.34
2017-02-24T07:59:37.073Z,24.63
2017-02-24T08:00:37.126Z,24.43
2017-02-24T08:01:37.031Z,24.72
2017-02-24T08:02:37.089Z,24.52
2017-02-24T08:03:37.053Z,24.72
2017-02-24T08:04:37.055Z,24.72
2017-02-24T08:05:37.115Z,24.62
2017-02-24T08:06:37.080Z,24.62
2017-02-24T08:07:37.782Z,24.62
2017-02-24T08:08:37.101Z,24.43
2017-02-24T08:09:37.095Z,24.52
2017-02-24T08:10:36.704Z,24.52
2017-02-24T08:11:37.110Z,24.24
2017-02-24T08:12:37.124Z,24.24
2017-02-24T08:13:37.228Z,24.06
2017-02-24T08:14:37.138Z,23.77
2017-02-24T08:15:36.762Z,23.48
2017-02-24T08:16:37.154Z,23.19
2017-02-24T08:17:36.817Z,23.2
2017-02-24T08:18:37.426Z,23.1
2017-02-24T08:19:37.232Z,23.3
2017-02-24T08:20:36.793Z,23.49
2017-02-24T08:21:37.254Z,23.1
2017-02-24T08:22:37.277Z,23.2
2017-02-24T08:23:37.223Z,23.3
2017-02-24T08:24:37.234Z,23.3
2017-02-24T08:25:37.298Z,23.1
2017-02-24T08:26:36.908Z,23.39
2017-02-24T08:27:37.266Z,23.39
2017-02-24T08:28:37.327Z,22.91
2017-02-24T08:29:37.290Z,23.1
2017-02-24T08:30:37.302Z,22.72
2017-02-24T08:31:37.358Z,23.11
2017-02-24T08:32:37.327Z,22.72
2017-02-24T08:33:37.329Z,22.72
2017-02-24T08:34:37.395Z,22.24
2017-02-24T08:35:37.456Z,22.24
2017-02-24T08:36:37.365Z,22.44
2017-02-24T08:37:36.993Z,22.44
2017-02-24T08:38:37.441Z,22.44
2017-02-24T08:39:37.009Z,22.44
2017-02-24T08:40:37.470Z,22.06
2017-02-24T08:41:37.476Z,22.35
2017-02-24T08:42:37.503Z,22.25
2017-02-24T08:44:37.508Z,22.72
2017-02-24T08:45:37.518Z,23.11
2017-02-24T08:46:37.486Z,23.2
2017-02-24T08:47:37.094Z,22.53
2017-02-24T08:48:37.506Z,22.25
2017-02-24T08:49:37.556Z,21.96
2017-02-24T08:50:37.573Z,21.78
2017-02-24T08:51:37.586Z,22.54
2017-02-24T08:52:37.596Z,22.34
2017-02-24T08:53:38.516Z,21.96
2017-02-24T08:54:37.619Z,21.97
2017-02-24T08:55:37.579Z,22.16
2017-02-24T08:56:37.612Z,22.06
2017-02-24T08:57:37.654Z,22.72
2017-02-24T08:58:37.672Z,22.24
2017-02-24T08:59:37.225Z,20.9
2017-02-24T09:00:37.631Z,20.35
2017-02-24T09:01:37.642Z,21.6
2017-02-24T09:02:38.479Z,21.97
2017-02-24T09:03:37.670Z,22.06
2017-02-24T09:04:38.181Z,22.24
2017-02-24T09:05:37.738Z,20.42
2017-02-24T09:06:37.753Z,19.18
2017-02-24T09:07:37.406Z,20.56
2017-02-24T09:08:37.369Z,22.17
2017-02-24T09:09:37.738Z,22.64
2017-02-24T09:10:37.449Z,23.21
2017-02-24T09:11:37.749Z,23
2017-02-24T09:12:37.777Z,23.2
2017-02-24T09:13:38.686Z,23.3
2017-02-24T09:14:37.380Z,23.2
2017-02-24T09:15:37.837Z,23.11
2017-02-24T09:16:37.795Z,21.85
2017-02-24T09:17:37.807Z,19.94
2017-02-24T09:18:37.865Z,18.9
2017-02-24T09:19:37.825Z,18.13
2017-02-24T09:20:37.885Z,18.74
2017-02-24T09:21:37.919Z,19.2
2017-02-24T09:22:37.960Z,21.12
2017-02-24T09:23:37.868Z,22.07
2017-02-24T09:24:38.336Z,22.24
2017-02-24T09:25:37.888Z,20.8
2017-02-24T09:26:37.951Z,21.59
2017-02-24T09:27:38.008Z,20.71
2017-02-24T09:28:37.921Z,18.98
2017-02-24T09:29:37.949Z,18.04
2017-02-24T09:30:37.943Z,18.92
2017-02-24T09:31:37.974Z,19.19
2017-02-24T09:32:38.028Z,18.99
2017-02-24T09:33:38.047Z,19.21
2017-02-24T09:34:38.050Z,20.35
2017-02-24T09:35:38.274Z,19.95
2017-02-24T09:36:38.014Z,19.87
2017-02-24T09:37:38.031Z,20.92
2017-02-24T09:38:38.085Z,20.81
2017-02-24T09:39:38.046Z,21.69
2017-02-24T09:40:38.107Z,22.16
2017-02-24T09:41:37.673Z,23.21
2017-02-24T09:42:38.088Z,21.94
2017-02-24T09:43:38.241Z,21.06
2017-02-24T09:44:38.157Z,24.41
2017-02-24T09:45:38.164Z,24.51
2017-02-24T09:46:38.120Z,24.02
2017-02-24T09:47:38.128Z,24.68
2017-02-24T09:48:38.221Z,23.33
2017-02-24T09:49:38.150Z,23.23
2017-02-24T09:50:38.156Z,21.77
2017-02-24T09:51:38.166Z,22.34
2017-02-24T09:52:38.223Z,23.41
2017-02-24T09:53:38.233Z,22.16
2017-02-24T09:54:38.286Z,23.11
2017-02-24T09:55:38.207Z,22.24
2017-02-24T09:56:38.197Z,21.95
2017-02-24T09:57:38.254Z,22.13
2017-02-24T09:58:38.215Z,22.61
2017-02-24T09:59:37.818Z,22.91
2017-02-24T10:00:38.282Z,22.33
2017-02-24T10:01:38.226Z,22.13
2017-02-24T10:02:38.230Z,22.52
2017-02-24T10:03:38.289Z,21.66
2017-02-24T10:04:38.245Z,20.69
2017-02-24T10:05:38.297Z,21.66
2017-02-24T10:06:38.310Z,21.47
2017-02-24T10:07:38.277Z,20.61
2017-02-24T10:08:37.914Z,20.7
2017-02-24T10:09:38.321Z,20.41
2017-02-24T10:10:39.348Z,20.69
2017-02-24T10:11:38.285Z,20.11
2017-02-24T10:12:38.286Z,20.31
2017-02-24T10:13:38.393Z,20.11
2017-02-24T10:14:38.295Z,20.5
2017-02-24T10:15:38.353Z,20.5
2017-02-24T10:16:38.354Z,19.92
2017-02-24T10:17:38.361Z,20.21
2017-02-24T10:18:38.316Z,20.11
2017-02-24T10:19:38.369Z,20.67
2017-02-24T10:20:38.374Z,20.78
2017-02-24T10:21:39.403Z,20.59
2017-02-24T10:22:38.333Z,21.35
2017-02-24T10:23:38.414Z,21.62
2017-02-24T10:24:38.002Z,21.53
2017-02-24T10:25:39.199Z,20.77
2017-02-24T10:26:38.399Z,21.53
2017-02-24T10:27:38.358Z,22.28
2017-02-24T10:28:38.360Z,21.81
2017-02-24T10:29:38.413Z,21.24
2017-02-24T10:30:38.423Z,20.96
2017-02-24T10:31:38.421Z,20.68
2017-02-24T10:32:39.102Z,20.48
2017-02-24T10:33:38.452Z,20.67
2017-02-24T10:34:38.435Z,21.62
2017-02-24T10:35:38.442Z,21.15
2017-02-24T10:36:38.389Z,20.96
2017-02-24T10:37:38.447Z,20
2017-02-24T10:38:38.001Z,20.67
2017-02-24T10:39:38.405Z,20.86
2017-02-24T10:40:38.410Z,20.96
2017-02-24T10:41:38.409Z,21.06
2017-02-24T10:42:38.465Z,20.96
2017-02-24T10:43:39.533Z,21.25
2017-02-24T10:44:38.514Z,21.91
2017-02-24T10:45:38.476Z,20.86
2017-02-24T10:46:38.035Z,20.96
2017-02-24T10:47:38.436Z,20.68
2017-02-24T10:48:38.493Z,20.67
2017-02-24T10:49:38.145Z,20.77
2017-02-24T10:50:38.111Z,21.06
2017-02-24T10:51:38.469Z,21.06
2017-02-24T10:52:38.107Z,21.42
2017-02-24T10:53:38.473Z,21.62
2017-02-24T10:54:39.629Z,20.66
2017-02-24T10:55:38.481Z,21.23
2017-02-24T10:56:38.582Z,20.76
2017-02-24T10:57:38.532Z,20.37
2017-02-24T10:58:38.496Z,20.37
2017-02-24T10:59:38.538Z,19.98
2017-02-24T11:00:38.543Z,20.86
2017-02-24T11:01:38.561Z,20.36
2017-02-24T11:02:38.548Z,20.75
2017-02-24T11:03:38.506Z,20.37
2017-02-24T11:04:38.855Z,21.13
2017-02-24T11:05:39.346Z,20.08
2017-02-24T11:06:38.514Z,20.28
2017-02-24T11:07:38.518Z,19.9
2017-02-24T11:08:38.570Z,20
2017-02-24T11:09:38.527Z,20.01
2017-02-24T11:10:38.535Z,19.51
2017-02-24T11:11:38.549Z,20.09
2017-02-24T11:12:38.546Z,19.68
2017-02-24T11:13:38.151Z,20.45
2017-02-24T11:14:38.546Z,20.35
2017-02-24T11:15:38.607Z,19.98
2017-02-24T11:16:39.406Z,19.6
2017-02-24T11:17:38.161Z,19.12
2017-02-24T11:18:38.568Z,18.74
2017-02-24T11:19:38.572Z,18.55
2017-02-24T11:20:38.626Z,18.84
2017-02-24T11:21:38.571Z,19.32
2017-02-24T11:22:38.583Z,18.64
2017-02-24T11:23:38.579Z,19.03
2017-02-24T11:24:38.589Z,18.55
2017-02-24T11:25:38.588Z,19.12
2017-02-24T11:26:38.694Z,19.4
2017-02-24T11:27:39.446Z,19.78
2017-02-24T11:28:38.609Z,19.49
2017-02-24T11:29:38.612Z,19.6
2017-02-24T11:30:38.607Z,19.03
2017-02-24T11:31:38.665Z,18.64
2017-02-24T11:32:38.617Z,19.6
2017-02-24T11:33:38.621Z,19.89
2017-02-24T11:34:38.675Z,19.02
2017-02-24T11:35:38.231Z,19.89
2017-02-24T11:36:38.695Z,19.79
2017-02-24T11:37:38.694Z,19.98
2017-02-24T11:38:39.356Z,19.79
2017-02-24T11:39:38.645Z,18.92
2017-02-24T11:40:38.697Z,19.7
2017-02-24T11:41:38.663Z,19.21
2017-02-24T11:42:38.655Z,19.22
2017-02-24T11:43:38.720Z,19.42
2017-02-24T11:44:38.676Z,19.7
2017-02-24T11:45:38.666Z,19.22
2017-02-24T11:46:38.291Z,19.32
2017-02-24T11:47:38.726Z,19.03
2017-02-24T11:48:38.729Z,19.12
2017-02-24T11:49:39.564Z,18.93
2017-02-24T11:50:38.743Z,19.51
2017-02-24T11:51:38.791Z,19.7
2017-02-24T11:52:38.758Z,18.93
2017-02-24T11:53:39.451Z,19.8
2017-02-24T11:54:38.771Z,19.6
2017-02-24T11:55:38.312Z,19.79
2017-02-24T11:56:38.722Z,20.18
2017-02-24T11:57:38.717Z,18.74
2017-02-24T11:58:38.725Z,18.64
2017-02-24T11:59:38.776Z,18.74
2017-02-24T12:00:39.901Z,19.22
2017-02-24T12:01:38.782Z,19.6
2017-02-24T12:02:38.786Z,18.82
2017-02-24T12:03:38.741Z,19.21
2017-02-24T12:04:38.850Z,19.6
2017-02-24T12:05:38.750Z,19.12
2017-02-24T12:06:38.757Z,18.84
2017-02-24T12:07:38.769Z,18.74
2017-02-24T12:08:38.362Z,18.93
2017-02-24T12:09:38.764Z,18.92
2017-02-24T12:10:38.817Z,19.02
2017-02-24T12:11:39.481Z,18.84
2017-02-24T12:12:38.824Z,18.74
2017-02-24T12:13:38.433Z,18.74
2017-02-24T12:14:38.885Z,19.22
2017-02-24T12:15:38.795Z,18.84
2017-02-24T12:16:38.840Z,18.74
2017-02-24T12:17:38.845Z,18.35
2017-02-24T12:18:38.850Z,18.82
2017-02-24T12:19:38.806Z,19.21
2017-02-24T12:20:38.890Z,18.63
2017-02-24T12:21:38.813Z,19.2
2017-02-24T12:22:39.420Z,19.49
2017-02-24T12:23:38.474Z,18.91
2017-02-24T12:24:38.836Z,19.59
2017-02-24T12:25:38.878Z,19.2
2017-02-24T12:26:38.883Z,18.63
2017-02-24T12:27:38.831Z,18.84
2017-02-24T12:28:38.844Z,19.02
2017-02-24T12:29:38.836Z,19.58
2017-02-24T12:30:38.840Z,18.63
2017-02-24T12:31:38.848Z,18.35
2017-02-24T12:32:38.901Z,18.17
2017-02-24T12:33:39.959Z,18.07
2017-02-24T12:34:38.912Z,18.82
2017-02-24T12:35:38.860Z,18.73
2017-02-24T12:36:38.863Z,19.21
2017-02-24T12:37:38.919Z,19.31
2017-02-24T12:38:38.473Z,18.73
2017-02-24T12:39:38.877Z,18.74
2017-02-24T12:40:38.531Z,18.65
2017-02-24T12:41:38.883Z,20.09
2017-02-24T12:42:38.536Z,19.31
2017-02-24T12:43:38.938Z,19.02
2017-02-24T12:44:39.797Z,20.36
2017-02-24T12:45:38.902Z,19.01
2017-02-24T12:46:38.919Z,19.4
2017-02-24T12:47:38.904Z,20.26
2017-02-24T12:48:38.909Z,20.47
2017-02-24T12:49:38.961Z,19.03
2017-02-24T12:50:38.965Z,18.46
2017-02-24T12:51:38.972Z,19.13
2017-02-24T12:52:38.930Z,18.06
2017-02-24T12:53:38.992Z,20.08
2017-02-24T12:54:38.949Z,19.42
2017-02-24T12:55:40.042Z,18.84
2017-02-24T12:56:38.945Z,18.75
2017-02-24T12:57:38.997Z,18.93
2017-02-24T12:58:38.951Z,19.59
2017-02-24T12:59:38.662Z,19.59